Time;durP1;ratioP1;P1;durP2;ratioP2;P2;SDS_P1;SDS_P2;PMS_P1;PMS_P2;Temp;Humidity;BMP_temperature;BMP_pressure;BME280_temperature;BME280_humidity;BME280_pressure;Samples;Min_cycle;Max_cycle;Signal;HPM_P1;HPM_P2
2023/04/01 00:01:53;;;;;;;21.58;14.05;;;;;;;;;;5059594;28;20414;-78
2023/04/01 00:04:21;;;;;;;20.83;14.03;;;;;;;;;;5064571;28;20916;-79
2023/04/01 00:06:48;;;;;;;22.02;14.25;;;;;;;;;;5061294;28;20482;-79
2023/04/01 00:09:14;;;;;;;21.10;15.00;;;;;;;;;;5063512;28;20447;-79
2023/04/01 00:11:41;;;;;;;18.17;13.60;;;;;;;;;;5065237;28;20428;-79
2023/04/01 00:14:08;;;;;;;21.10;15.15;;;;;;;;;;5061581;28;20424;-80
2023/04/01 00:16:34;;;;;;;22.50;14.88;;;;;;;;;;5069474;28;20428;-80
2023/04/01 00:19:03;;;;;;;20.80;15.32;;;;;;;;;;5064788;28;20455;-79
2023/04/01 00:21:29;;;;;;;28.42;14.60;;;;;;;;;;5065421;28;20420;-79
2023/04/01 00:23:57;;;;;;;25.63;14.77;;;;;;;;;;5066923;28;20454;-80
2023/04/01 00:26:25;;;;;;;23.40;14.88;;;;;;;;;;5060399;28;20419;-80
2023/04/01 00:28:51;;;;;;;22.13;14.90;;;;;;;;;;5063922;28;20439;-78
2023/04/01 00:31:18;;;;;;;20.60;14.00;;;;;;;;;;5066013;28;20883;-78
2023/04/01 00:33:44;;;;;;;24.70;14.80;;;;;;;;;;5067665;28;20437;-79
2023/04/01 00:36:13;;;;;;;20.55;14.98;;;;;;;;;;5065714;28;20431;-80
2023/04/01 00:38:40;;;;;;;24.33;14.32;;;;;;;;;;5064507;28;20423;-77
2023/04/01 00:41:07;;;;;;;22.80;15.43;;;;;;;;;;5063455;28;20427;-78
2023/04/01 00:43:34;;;;;;;23.23;14.55;;;;;;;;;;5058519;28;20421;-78
2023/04/01 00:46:02;;;;;;;23.20;15.60;;;;;;;;;;5064164;28;20425;-82
2023/04/01 00:48:30;;;;;;;22.35;15.40;;;;;;;;;;5062476;28;20431;-80
2023/04/01 00:50:59;;;;;;;23.05;14.75;;;;;;;;;;5063062;28;21009;-79
2023/04/01 00:53:27;;;;;;;18.80;13.80;;;;;;;;;;5062340;28;20436;-78
2023/04/01 00:55:57;;;;;;;19.02;13.60;;;;;;;;;;5063420;28;20419;-78
2023/04/01 00:58:26;;;;;;;21.40;13.40;;;;;;;;;;5065884;28;20518;-78
2023/04/01 01:00:55;;;;;;;18.08;13.63;;;;;;;;;;5064139;28;20423;-78
2023/04/01 01:03:21;;;;;;;21.23;13.40;;;;;;;;;;5059253;28;20418;-79
2023/04/01 01:06:05;;;;;;;20.17;13.77;;;;;;;;;;5061816;28;20433;-79
2023/04/01 01:08:40;;;;;;;23.23;14.35;;;;;;;;;;5064505;28;20797;-79
2023/04/01 01:11:09;;;;;;;21.05;14.68;;;;;;;;;;5056230;28;20474;-79
2023/04/01 01:13:41;;;;;;;19.80;14.23;;;;;;;;;;5064762;28;20914;-79
2023/04/01 01:16:10;;;;;;;22.63;15.00;;;;;;;;;;5062596;28;20436;-79
2023/04/01 01:18:40;;;;;;;20.07;14.07;;;;;;;;;;5067753;28;20412;-79
2023/04/01 01:21:19;;;;;;;22.30;15.05;;;;;;;;;;5064146;28;20469;-79
2023/04/01 01:23:55;;;;;;;22.73;14.95;;;;;;;;;;5063598;28;20423;-79
2023/04/01 01:26:40;;;;;;;23.33;14.73;;;;;;;;;;5044219;28;20431;-79
2023/04/01 01:29:13;;;;;;;22.00;15.60;;;;;;;;;;5042705;28;20433;-79
2023/04/01 01:31:51;;;;;;;22.23;15.88;;;;;;;;;;5040785;28;20510;-79
2023/04/01 01:34:23;;;;;;;22.13;15.25;;;;;;;;;;5042396;28;20430;-79
2023/04/01 01:36:54;;;;;;;23.50;14.80;;;;;;;;;;5038671;28;20474;-79
2023/04/01 01:39:26;;;;;;;20.85;15.32;;;;;;;;;;5043250;28;20934;-79
2023/04/01 01:41:53;;;;;;;29.42;15.90;;;;;;;;;;5043511;28;20435;-79
2023/04/01 01:44:20;;;;;;;22.10;15.70;;;;;;;;;;5044646;28;20497;-79
2023/04/01 01:46:47;;;;;;;22.15;15.40;;;;;;;;;;5045987;28;20498;-79
2023/04/01 01:49:15;;;;;;;26.17;16.30;;;;;;;;;;5043132;28;20433;-79
2023/04/01 01:51:42;;;;;;;22.10;16.38;;;;;;;;;;5045076;28;20438;-79
2023/04/01 01:54:14;;;;;;;20.55;15.40;;;;;;;;;;5039737;28;20528;-79
2023/04/01 01:56:42;;;;;;;21.08;15.48;;;;;;;;;;5041168;28;20455;-79
2023/04/01 01:59:09;;;;;;;24.23;16.13;;;;;;;;;;5046010;28;20432;-79
2023/04/01 02:01:37;;;;;;;21.77;15.88;;;;;;;;;;5043296;28;20423;-79
2023/04/01 02:04:05;;;;;;;27.08;17.02;;;;;;;;;;5042552;28;21001;-79
2023/04/01 02:06:33;;;;;;;24.67;16.60;;;;;;;;;;5061740;28;20419;-79
2023/04/01 02:09:02;;;;;;;23.58;15.57;;;;;;;;;;5062758;28;20419;-79
2023/04/01 02:11:31;;;;;;;23.58;16.15;;;;;;;;;;5060997;28;20413;-79
2023/04/01 02:14:01;;;;;;;23.90;16.45;;;;;;;;;;5061697;28;20429;-79
2023/04/01 02:16:29;;;;;;;24.10;16.58;;;;;;;;;;5063988;28;20508;-79
2023/04/01 02:18:56;;;;;;;21.73;15.82;;;;;;;;;;5063509;28;20758;-79
2023/04/01 02:21:25;;;;;;;21.67;15.30;;;;;;;;;;5061927;28;20412;-79
2023/04/01 02:23:53;;;;;;;22.30;15.57;;;;;;;;;;5063672;28;20429;-79
2023/04/01 02:26:24;;;;;;;23.45;15.77;;;;;;;;;;5061545;28;20419;-79
2023/04/01 02:28:53;;;;;;;21.95;15.45;;;;;;;;;;5060864;28;20530;-79
2023/04/01 02:31:20;;;;;;;21.38;14.57;;;;;;;;;;5063231;28;20426;-79
2023/04/01 02:33:47;;;;;;;23.98;15.75;;;;;;;;;;5064013;28;20423;-79
2023/04/01 02:36:14;;;;;;;23.30;15.75;;;;;;;;;;5067588;28;20933;-79
2023/04/01 02:38:41;;;;;;;25.92;16.73;;;;;;;;;;5063953;28;20436;-79
2023/04/01 02:41:07;;;;;;;21.45;15.15;;;;;;;;;;5060974;28;20785;-79
2023/04/01 02:43:34;;;;;;;20.13;14.50;;;;;;;;;;5062477;28;20425;-79
2023/04/01 02:46:02;;;;;;;22.10;15.80;;;;;;;;;;5066420;28;20431;-79
2023/04/01 02:48:29;;;;;;;24.70;15.68;;;;;;;;;;5063575;28;20417;-79
2023/04/01 02:50:59;;;;;;;21.25;14.70;;;;;;;;;;5061093;28;20421;-79
2023/04/01 02:53:25;;;;;;;22.10;15.80;;;;;;;;;;5061592;28;20436;-79
2023/04/01 02:55:52;;;;;;;20.67;14.93;;;;;;;;;;5061266;28;20428;-79
2023/04/01 02:58:18;;;;;;;22.15;14.85;;;;;;;;;;5058769;28;20432;-79
2023/04/01 03:00:44;;;;;;;24.88;16.38;;;;;;;;;;5064331;28;20426;-79
2023/04/01 03:03:13;;;;;;;25.10;15.48;;;;;;;;;;5060338;28;20439;-79
2023/04/01 03:05:42;;;;;;;20.23;14.37;;;;;;;;;;5060577;28;20806;-79
2023/04/01 03:08:09;;;;;;;22.90;15.98;;;;;;;;;;5061566;28;20807;-79
2023/04/01 03:10:35;;;;;;;22.20;15.43;;;;;;;;;;5061070;28;20425;-79
2023/04/01 03:13:01;;;;;;;23.23;15.70;;;;;;;;;;5065403;28;20427;-79
2023/04/01 03:15:28;;;;;;;24.15;15.45;;;;;;;;;;5066301;28;20420;-79
2023/04/01 03:17:57;;;;;;;20.05;14.75;;;;;;;;;;5065441;28;20424;-79
2023/04/01 03:20:25;;;;;;;23.73;16.05;;;;;;;;;;5065882;28;20421;-79
2023/04/01 03:22:52;;;;;;;23.23;15.80;;;;;;;;;;5066100;28;20427;-79
2023/04/01 03:25:18;;;;;;;21.98;15.40;;;;;;;;;;5062478;28;20420;-79
2023/04/01 03:27:44;;;;;;;24.27;16.10;;;;;;;;;;5066592;28;20436;-79
2023/04/01 03:30:11;;;;;;;21.90;15.80;;;;;;;;;;5063910;28;20413;-79
2023/04/01 03:32:37;;;;;;;22.20;15.85;;;;;;;;;;5064844;28;20431;-79
2023/04/01 03:35:05;;;;;;;25.75;16.70;;;;;;;;;;5068215;28;20913;-79
2023/04/01 03:37:33;;;;;;;22.80;15.67;;;;;;;;;;5067522;28;20495;-79
2023/04/01 03:39:59;;;;;;;24.55;15.43;;;;;;;;;;5066779;28;20864;-79
2023/04/01 03:42:25;;;;;;;23.25;15.15;;;;;;;;;;5067985;28;20427;-79
2023/04/01 03:44:52;;;;;;;22.17;15.40;;;;;;;;;;5064488;28;20398;-79
2023/04/01 03:47:18;;;;;;;23.75;16.10;;;;;;;;;;5067318;28;20439;-79
2023/04/01 03:49:44;;;;;;;23.58;16.00;;;;;;;;;;5067028;28;20947;-79
2023/04/01 03:52:11;;;;;;;22.63;14.80;;;;;;;;;;5065677;28;20512;-79
2023/04/01 03:54:39;;;;;;;23.33;15.77;;;;;;;;;;5064809;28;20431;-80
2023/04/01 03:57:05;;;;;;;24.40;15.70;;;;;;;;;;5066440;28;20905;-79
2023/04/01 03:59:32;;;;;;;26.85;16.00;;;;;;;;;;5065309;28;20429;-79
2023/04/01 04:01:58;;;;;;;26.98;16.80;;;;;;;;;;5063289;28;20431;-79
2023/04/01 04:04:26;;;;;;;23.52;15.43;;;;;;;;;;5064193;28;20941;-78
2023/04/01 04:06:53;;;;;;;26.88;16.95;;;;;;;;;;5063203;28;20436;-77
2023/04/01 04:09:20;;;;;;;25.90;17.07;;;;;;;;;;5065651;28;20443;-80
2023/04/01 04:11:47;;;;;;;26.77;18.25;;;;;;;;;;5066257;28;20465;-77
2023/04/01 04:14:14;;;;;;;26.80;18.85;;;;;;;;;;5062047;28;20426;-78
2023/04/01 04:16:41;;;;;;;28.85;18.92;;;;;;;;;;5065335;28;20429;-77
2023/04/01 04:19:07;;;;;;;27.13;18.73;;;;;;;;;;5068418;28;20451;-79
2023/04/01 04:21:33;;;;;;;29.50;18.67;;;;;;;;;;5066429;28;20424;-80
2023/04/01 04:24:00;;;;;;;28.70;19.05;;;;;;;;;;5064856;28;20442;-78
2023/04/01 04:26:26;;;;;;;32.55;19.30;;;;;;;;;;5064588;28;20421;-77
2023/04/01 04:28:54;;;;;;;27.98;19.08;;;;;;;;;;5058692;28;20429;-77
2023/04/01 04:31:21;;;;;;;29.83;19.10;;;;;;;;;;5063175;28;20443;-77
2023/04/01 04:33:47;;;;;;;27.55;18.60;;;;;;;;;;5065077;28;20429;-78
2023/04/01 04:36:15;;;;;;;25.52;18.00;;;;;;;;;;5066572;28;20419;-78
2023/04/01 04:38:41;;;;;;;28.85;17.88;;;;;;;;;;5065629;28;20435;-78
2023/04/01 04:41:09;;;;;;;24.73;17.17;;;;;;;;;;5061841;28;20433;-78
2023/04/01 04:43:37;;;;;;;25.48;15.95;;;;;;;;;;5065971;28;20436;-78
2023/04/01 04:46:06;;;;;;;26.10;17.50;;;;;;;;;;5058295;28;20429;-77
2023/04/01 04:48:34;;;;;;;26.20;17.48;;;;;;;;;;5064589;28;20429;-78
2023/04/01 04:51:00;;;;;;;27.90;18.08;;;;;;;;;;5061938;28;20504;-77
2023/04/01 04:53:27;;;;;;;24.55;17.38;;;;;;;;;;5062908;28;20426;-78
2023/04/01 04:55:53;;;;;;;25.45;17.20;;;;;;;;;;5064765;28;20431;-78
2023/04/01 04:58:20;;;;;;;26.10;17.85;;;;;;;;;;5063509;28;20452;-78
2023/04/01 05:00:46;;;;;;;23.37;16.00;;;;;;;;;;5061161;28;20422;-78
2023/04/01 05:03:15;;;;;;;24.92;16.30;;;;;;;;;;5065367;28;20419;-78
2023/04/01 05:05:48;;;;;;;22.60;16.50;;;;;;;;;;5062674;28;20425;-78
2023/04/01 05:08:15;;;;;;;22.00;16.10;;;;;;;;;;5066333;28;20467;-78
2023/04/01 05:10:41;;;;;;;24.52;16.25;;;;;;;;;;5064406;28;20425;-78
2023/04/01 05:13:08;;;;;;;27.10;16.93;;;;;;;;;;5060797;28;20441;-78
2023/04/01 05:15:34;;;;;;;22.65;15.68;;;;;;;;;;5064551;28;20423;-78
2023/04/01 05:18:00;;;;;;;21.92;15.43;;;;;;;;;;5065240;28;20415;-78
2023/04/01 05:20:29;;;;;;;23.23;16.10;;;;;;;;;;5059925;28;20425;-77
2023/04/01 05:22:56;;;;;;;20.17;15.05;;;;;;;;;;5064463;28;20793;-77
2023/04/01 05:25:22;;;;;;;23.00;15.98;;;;;;;;;;5062340;28;20440;-78
2023/04/01 05:27:49;;;;;;;23.85;14.95;;;;;;;;;;5063551;28;20506;-79
2023/04/01 05:30:15;;;;;;;21.42;14.60;;;;;;;;;;5064175;28;20450;-78
2023/04/01 05:32:42;;;;;;;25.05;15.70;;;;;;;;;;5063067;28;20431;-79
2023/04/01 05:35:11;;;;;;;20.00;14.30;;;;;;;;;;5067754;28;20936;-79
2023/04/01 05:37:39;;;;;;;20.23;13.70;;;;;;;;;;5065283;28;20431;-78
2023/04/01 05:40:07;;;;;;;20.77;13.70;;;;;;;;;;5064903;28;20417;-78
2023/04/01 05:42:34;;;;;;;17.30;13.17;;;;;;;;;;5064857;28;20434;-78
2023/04/01 05:45:00;;;;;;;20.75;12.70;;;;;;;;;;5061888;28;20427;-78
2023/04/01 05:47:27;;;;;;;21.15;13.30;;;;;;;;;;5062321;28;20446;-78
2023/04/01 05:49:55;;;;;;;19.25;12.93;;;;;;;;;;5062127;28;20421;-77
2023/04/01 05:52:22;;;;;;;15.30;11.95;;;;;;;;;;5067300;28;20434;-77
2023/04/01 05:54:50;;;;;;;20.23;12.23;;;;;;;;;;5070080;28;20419;-77
2023/04/01 05:57:16;;;;;;;19.17;12.00;;;;;;;;;;5059342;28;20447;-77
2023/04/01 05:59:43;;;;;;;19.43;12.00;;;;;;;;;;5061889;28;20408;-77
2023/04/01 06:02:09;;;;;;;20.80;12.82;;;;;;;;;;5063305;28;20428;-78
2023/04/01 06:04:38;;;;;;;18.40;12.68;;;;;;;;;;5064234;28;20432;-77
2023/04/01 06:07:06;;;;;;;16.60;11.80;;;;;;;;;;5065489;28;20420;-79
2023/04/01 06:09:33;;;;;;;18.13;12.15;;;;;;;;;;5058283;28;20438;-78
2023/04/01 06:12:11;;;;;;;14.88;12.23;;;;;;;;;;5059818;28;20420;-78
2023/04/01 06:14:42;;;;;;;18.35;12.45;;;;;;;;;;5060638;28;20940;-77
2023/04/01 06:17:18;;;;;;;15.32;11.75;;;;;;;;;;5060360;28;20419;-78
2023/04/01 06:19:48;;;;;;;14.63;11.52;;;;;;;;;;5063965;28;20440;-78
2023/04/01 06:22:23;;;;;;;16.83;11.77;;;;;;;;;;5061622;28;20492;-78
2023/04/01 06:25:08;;;;;;;17.25;11.85;;;;;;;;;;5062108;28;20419;-80
2023/04/01 06:27:47;;;;;;;16.95;11.80;;;;;;;;;;5047119;28;20427;-79
2023/04/01 06:30:25;;;;;;;17.20;11.80;;;;;;;;;;5061916;28;20428;-79
2023/04/01 06:32:59;;;;;;;18.85;12.20;;;;;;;;;;5061243;28;20437;-79
2023/04/01 06:35:32;;;;;;;18.33;12.13;;;;;;;;;;5063178;28;20432;-79
2023/04/01 06:38:19;;;;;;;17.67;11.10;;;;;;;;;;5062811;28;20424;-81
2023/04/01 06:41:14;;;;;;;16.52;11.70;;;;;;;;;;5051409;28;20437;-82
2023/04/01 06:43:46;;;;;;;13.32;10.70;;;;;;;;;;5061411;28;20802;-81
2023/04/01 06:46:16;;;;;;;14.13;11.10;;;;;;;;;;5060002;28;20524;-82
2023/04/01 06:48:49;;;;;;;16.30;11.20;;;;;;;;;;5064054;28;20889;-82
2023/04/01 06:51:20;;;;;;;13.20;10.00;;;;;;;;;;5066450;28;20430;-81
2023/04/01 06:53:54;;;;;;;14.10;10.10;;;;;;;;;;5067852;28;20784;-80
2023/04/01 06:56:22;;;;;;;12.55;10.32;;;;;;;;;;5068671;28;20423;-81
2023/04/01 06:58:53;;;;;;;15.75;10.70;;;;;;;;;;5065391;28;20774;-80
2023/04/01 07:01:23;;;;;;;12.77;10.32;;;;;;;;;;5063532;28;20425;-80
2023/04/01 07:03:53;;;;;;;12.60;9.77;;;;;;;;;;5068700;28;20844;-80
2023/04/01 07:06:28;;;;;;;10.82;9.73;;;;;;;;;;5064883;28;20415;-80
2023/04/01 07:08:55;;;;;;;13.20;9.77;;;;;;;;;;5065975;28;20421;-81
2023/04/01 07:11:26;;;;;;;13.05;9.43;;;;;;;;;;5063718;28;20434;-81
2023/04/01 07:13:55;;;;;;;11.93;9.20;;;;;;;;;;5066587;28;20828;-81
2023/04/01 07:16:25;;;;;;;12.45;9.50;;;;;;;;;;5064951;28;20912;-81
2023/04/01 07:18:54;;;;;;;12.18;9.40;;;;;;;;;;5065650;28;20427;-81
2023/04/01 07:21:24;;;;;;;10.82;8.73;;;;;;;;;;5063557;28;20422;-81
2023/04/01 07:23:51;;;;;;;11.40;8.52;;;;;;;;;;5068190;28;20428;-81
2023/04/01 07:26:20;;;;;;;11.80;8.80;;;;;;;;;;5067452;28;20436;-81
2023/04/01 07:28:47;;;;;;;10.50;9.40;;;;;;;;;;5064296;28;20498;-81
2023/04/01 07:31:20;;;;;;;9.98;8.77;;;;;;;;;;5066228;28;20417;-81
2023/04/01 07:33:51;;;;;;;11.00;8.27;;;;;;;;;;5067640;28;20427;-81
2023/04/01 07:36:19;;;;;;;10.07;9.00;;;;;;;;;;5063983;28;20435;-81
2023/04/01 07:38:51;;;;;;;10.73;8.80;;;;;;;;;;5065502;28;20413;-81
2023/04/01 07:41:21;;;;;;;10.30;7.65;;;;;;;;;;5064905;28;20926;-81
2023/04/01 07:43:54;;;;;;;9.52;8.02;;;;;;;;;;5064730;28;20428;-81
2023/04/01 07:46:30;;;;;;;9.95;7.82;;;;;;;;;;5056333;28;20405;-81
2023/04/01 07:48:59;;;;;;;7.90;7.10;;;;;;;;;;5066620;28;20431;-81
2023/04/01 07:51:28;;;;;;;11.00;8.95;;;;;;;;;;5064344;28;20423;-81
2023/04/01 07:53:59;;;;;;;8.52;6.20;;;;;;;;;;5064237;28;20481;-81
2023/04/01 07:56:28;;;;;;;6.30;5.70;;;;;;;;;;5064936;28;20919;-81
2023/04/01 07:58:59;;;;;;;7.13;5.53;;;;;;;;;;5065129;28;20407;-81
2023/04/01 08:01:31;;;;;;;5.68;4.60;;;;;;;;;;5059728;28;20435;-81
2023/04/01 08:04:05;;;;;;;5.68;4.95;;;;;;;;;;5062290;28;20526;-81
2023/04/01 08:06:34;;;;;;;5.25;4.70;;;;;;;;;;5061031;28;20405;-81
2023/04/01 08:09:03;;;;;;;4.63;4.23;;;;;;;;;;5063138;28;20494;-81
2023/04/01 08:11:33;;;;;;;5.15;4.57;;;;;;;;;;5062149;28;20408;-81
2023/04/01 08:14:05;;;;;;;5.30;4.60;;;;;;;;;;5063912;28;20423;-81
2023/04/01 08:16:36;;;;;;;5.85;4.60;;;;;;;;;;5062422;28;20415;-81
2023/04/01 08:19:07;;;;;;;5.32;4.30;;;;;;;;;;5065011;28;20458;-81
2023/04/01 08:21:36;;;;;;;4.38;3.75;;;;;;;;;;5064866;28;20423;-81
2023/04/01 08:24:07;;;;;;;4.30;4.00;;;;;;;;;;5063799;28;20506;-81
2023/04/01 08:26:36;;;;;;;5.00;4.38;;;;;;;;;;5064786;28;20416;-81
2023/04/01 08:29:05;;;;;;;4.60;4.10;;;;;;;;;;5063920;28;20447;-81
2023/04/01 08:31:35;;;;;;;5.72;4.43;;;;;;;;;;5061487;28;20446;-81
2023/04/01 08:34:04;;;;;;;4.77;4.37;;;;;;;;;;5063711;28;20458;-81
2023/04/01 08:36:33;;;;;;;5.10;3.70;;;;;;;;;;5062036;28;20427;-81
2023/04/01 08:39:03;;;;;;;5.38;4.20;;;;;;;;;;5064807;28;20426;-81
2023/04/01 08:41:35;;;;;;;4.50;3.80;;;;;;;;;;5062404;28;20500;-81
2023/04/01 08:44:22;;;;;;;3.92;3.28;;;;;;;;;;5061129;28;20425;-81
2023/04/01 08:50:05;;;;;;;5.57;2.90;;;;;;;;;;5096915;27;20397;-79
2023/04/01 08:52:37;;;;;;;3.10;2.80;;;;;;;;;;5055728;28;20939;-81
2023/04/01 08:55:22;;;;;;;2.80;2.60;;;;;;;;;;5057264;28;20440;-80
2023/04/01 08:57:54;;;;;;;3.30;2.53;;;;;;;;;;5056856;28;20430;-81
2023/04/01 09:00:26;;;;;;;3.92;2.30;;;;;;;;;;5060059;28;20937;-81
2023/04/01 09:03:13;;;;;;;2.40;2.20;;;;;;;;;;5060589;28;20420;-81
2023/04/01 09:05:47;;;;;;;2.80;2.20;;;;;;;;;;5053552;28;20413;-81
2023/04/01 09:08:23;;;;;;;4.45;2.05;;;;;;;;;;5059218;28;20427;-81
2023/04/01 09:11:15;;;;;;;2.30;2.10;;;;;;;;;;5062620;28;20436;-81
2023/04/01 09:14:04;;;;;;;1.95;1.85;;;;;;;;;;5060428;28;20433;-81
2023/04/01 09:16:42;;;;;;;2.20;2.00;;;;;;;;;;5057131;28;20919;-81
2023/04/01 09:19:26;;;;;;;2.28;2.08;;;;;;;;;;5056553;28;20425;-81
2023/04/01 09:22:11;;;;;;;2.50;2.10;;;;;;;;;;5055891;28;20420;-79
2023/04/01 09:24:46;;;;;;;2.50;2.30;;;;;;;;;;5057736;28;20430;-80
2023/04/01 09:27:19;;;;;;;1.90;1.70;;;;;;;;;;5056222;28;20424;-80
2023/04/01 09:29:55;;;;;;;1.77;1.67;;;;;;;;;;5059631;28;20432;-79
2023/04/01 09:32:36;;;;;;;2.87;1.80;;;;;;;;;;5057583;28;21003;-79
2023/04/01 09:35:07;;;;;;;1.85;1.67;;;;;;;;;;5059475;28;20798;-78
2023/04/01 09:37:41;;;;;;;4.10;2.30;;;;;;;;;;5060189;28;22172;-79
2023/04/01 09:40:18;;;;;;;2.20;1.80;;;;;;;;;;5057939;28;20438;-79
2023/04/01 09:42:45;;;;;;;1.80;1.70;;;;;;;;;;5057058;28;20458;-79
2023/04/01 09:45:21;;;;;;;2.40;2.30;;;;;;;;;;5061005;28;20487;-79
2023/04/01 09:47:52;;;;;;;2.20;2.10;;;;;;;;;;5062958;28;20427;-80
2023/04/01 09:50:30;;;;;;;3.03;2.72;;;;;;;;;;5077548;28;20438;-78
2023/04/01 09:53:01;;;;;;;1.95;1.85;;;;;;;;;;5078962;28;20449;-77
2023/04/01 09:55:56;;;;;;;2.10;2.00;;;;;;;;;;5077596;28;20432;-79
2023/04/01 09:58:49;;;;;;;2.63;2.47;;;;;;;;;;5080700;28;20495;-80
2023/04/01 10:01:32;;;;;;;2.63;2.50;;;;;;;;;;4995722;28;20429;-79
2023/04/01 10:04:22;;;;;;;2.63;2.50;;;;;;;;;;5064788;28;20436;-80
2023/04/01 10:07:07;;;;;;;2.53;2.33;;;;;;;;;;5061546;28;20435;-78
2023/04/01 10:09:57;;;;;;;2.00;1.90;;;;;;;;;;5065552;28;20419;-78
2023/04/01 10:12:46;;;;;;;1.90;1.70;;;;;;;;;;4971968;28;20433;-78
2023/04/01 10:15:24;;;;;;;1.43;1.33;;;;;;;;;;5066435;28;20431;-78
2023/04/01 10:18:06;;;;;;;1.52;1.00;;;;;;;;;;5062637;28;20488;-79
2023/04/01 10:20:50;;;;;;;1.00;1.00;;;;;;;;;;5061238;28;20504;-80
2023/04/01 10:23:21;;;;;;;0.80;0.80;;;;;;;;;;5017395;28;20455;-79
2023/04/01 10:26:06;;;;;;;0.90;0.60;;;;;;;;;;5064303;28;20427;-80
2023/04/01 10:28:48;;;;;;;1.17;0.90;;;;;;;;;;5069365;28;20428;-80
2023/04/01 10:31:30;;;;;;;0.80;0.80;;;;;;;;;;5061143;28;20431;-78
2023/04/01 10:34:18;;;;;;;0.93;0.80;;;;;;;;;;5066172;28;20427;-78
2023/04/01 10:36:49;;;;;;;1.30;0.80;;;;;;;;;;5061775;28;21358;-78
2023/04/01 10:39:34;;;;;;;0.80;0.80;;;;;;;;;;5065252;28;20428;-79
2023/04/01 10:42:19;;;;;;;1.00;1.00;;;;;;;;;;5065362;28;20404;-79
2023/04/01 10:45:00;;;;;;;1.10;1.00;;;;;;;;;;5063554;28;20436;-80
2023/04/01 10:47:45;;;;;;;1.47;1.00;;;;;;;;;;5042310;28;20429;-79
2023/04/01 10:50:30;;;;;;;1.20;1.10;;;;;;;;;;5060588;28;20893;-80
2023/04/01 10:53:17;;;;;;;2.10;1.10;;;;;;;;;;5063042;28;20425;-78
2023/04/01 10:56:01;;;;;;;1.35;1.23;;;;;;;;;;5054406;28;20793;-79
2023/04/01 10:58:47;;;;;;;1.40;1.30;;;;;;;;;;5066407;28;20432;-79
2023/04/01 11:01:25;;;;;;;1.63;1.52;;;;;;;;;;5047087;28;20421;-78
2023/04/01 11:04:10;;;;;;;2.50;2.30;;;;;;;;;;5046776;28;20772;-80
2023/04/01 11:07:00;;;;;;;2.80;2.60;;;;;;;;;;5063150;28;20415;-78
2023/04/01 11:09:45;;;;;;;1.80;1.70;;;;;;;;;;5064692;28;20425;-79
2023/04/01 11:12:35;;;;;;;1.80;1.70;;;;;;;;;;5063486;28;20420;-80
2023/04/01 11:15:26;;;;;;;1.30;1.20;;;;;;;;;;5061134;28;20438;-77
2023/04/01 11:18:16;;;;;;;1.85;1.75;;;;;;;;;;5017204;28;20416;-80
2023/04/01 11:20:55;;;;;;;2.17;2.08;;;;;;;;;;5062426;28;20427;-79
2023/04/01 11:23:33;;;;;;;2.97;1.85;;;;;;;;;;5064609;28;20789;-80
2023/04/01 11:26:07;;;;;;;2.50;2.30;;;;;;;;;;5045578;28;20415;-78
2023/04/01 11:28:52;;;;;;;1.90;1.80;;;;;;;;;;5061224;28;20425;-81
2023/04/01 11:31:26;;;;;;;1.80;1.70;;;;;;;;;;5065239;28;20435;-78
2023/04/01 11:33:56;;;;;;;1.80;1.40;;;;;;;;;;5064000;28;20508;-78
2023/04/01 11:36:34;;;;;;;2.45;1.45;;;;;;;;;;5045375;28;20922;-78
2023/04/01 11:39:05;;;;;;;1.30;1.20;;;;;;;;;;5061138;28;20503;-81
2023/04/01 11:41:35;;;;;;;1.20;1.10;;;;;;;;;;5061022;28;20412;-80
2023/04/01 11:44:11;;;;;;;1.10;1.10;;;;;;;;;;5060082;28;20426;-80
2023/04/01 11:46:45;;;;;;;1.60;1.48;;;;;;;;;;5061450;28;20416;-81
2023/04/01 11:49:21;;;;;;;1.25;1.15;;;;;;;;;;5061444;28;20456;-80
2023/04/01 11:52:06;;;;;;;1.10;1.00;;;;;;;;;;5062025;28;20404;-80
2023/04/01 11:54:50;;;;;;;1.10;1.00;;;;;;;;;;5061347;28;20577;-80
2023/04/01 11:57:28;;;;;;;1.90;1.00;;;;;;;;;;5043528;28;20425;-80
2023/04/01 12:00:03;;;;;;;1.20;1.10;;;;;;;;;;5061649;28;20410;-80
2023/04/01 12:02:35;;;;;;;2.45;1.50;;;;;;;;;;5059320;28;20415;-80
2023/04/01 12:05:23;;;;;;;2.05;1.80;;;;;;;;;;5043737;28;20423;-80
2023/04/01 12:07:54;;;;;;;2.10;2.00;;;;;;;;;;5045975;28;20413;-80
2023/04/01 12:10:21;;;;;;;2.10;2.00;;;;;;;;;;5062765;28;20486;-79
2023/04/01 12:12:57;;;;;;;2.20;2.00;;;;;;;;;;5066158;28;20497;-80
2023/04/01 12:15:26;;;;;;;2.00;1.55;;;;;;;;;;5061528;28;20431;-80
2023/04/01 12:17:57;;;;;;;1.70;1.60;;;;;;;;;;5027463;28;21015;-78
2023/04/01 12:20:27;;;;;;;1.40;1.20;;;;;;;;;;5057762;28;20409;-78
2023/04/01 12:22:59;;;;;;;1.20;1.10;;;;;;;;;;5067123;28;20429;-80
2023/04/01 12:25:38;;;;;;;1.50;1.13;;;;;;;;;;5062140;28;20411;-80
2023/04/01 12:28:11;;;;;;;1.20;1.10;;;;;;;;;;5060924;28;20416;-80
2023/04/01 12:30:47;;;;;;;1.40;1.00;;;;;;;;;;5060748;28;20432;-80
2023/04/01 12:33:24;;;;;;;1.60;1.50;;;;;;;;;;5057454;28;20932;-80
2023/04/01 12:35:55;;;;;;;1.33;1.23;;;;;;;;;;5064361;28;20439;-80
2023/04/01 12:38:25;;;;;;;1.40;1.30;;;;;;;;;;5061418;28;20436;-80
2023/04/01 12:40:55;;;;;;;2.00;1.50;;;;;;;;;;5060829;28;20414;-80
2023/04/01 12:43:35;;;;;;;1.50;1.40;;;;;;;;;;5061755;28;20784;-79
2023/04/01 12:46:06;;;;;;;1.38;1.27;;;;;;;;;;5064973;28;20964;-80
2023/04/01 12:48:45;;;;;;;1.73;1.30;;;;;;;;;;5061647;28;20424;-79
2023/04/01 12:51:34;;;;;;;1.40;1.30;;;;;;;;;;5058765;28;20428;-80
2023/04/01 12:54:15;;;;;;;1.30;1.20;;;;;;;;;;5061432;28;21051;-79
2023/04/01 12:56:45;;;;;;;1.30;1.20;;;;;;;;;;5058558;28;20411;-78
2023/04/01 12:59:24;;;;;;;2.13;1.92;;;;;;;;;;5061537;28;20409;-78
2023/04/01 13:02:00;;;;;;;1.83;1.73;;;;;;;;;;5062659;28;20944;-78
2023/04/01 13:04:35;;;;;;;1.60;1.50;;;;;;;;;;5061983;28;20418;-80
2023/04/01 13:07:10;;;;;;;1.58;1.48;;;;;;;;;;5042791;28;20417;-79
2023/04/01 13:09:42;;;;;;;1.30;1.20;;;;;;;;;;5062760;28;20433;-80
2023/04/01 13:12:21;;;;;;;1.30;1.20;;;;;;;;;;5066717;28;20437;-80
2023/04/01 13:14:58;;;;;;;1.17;1.00;;;;;;;;;;5042845;28;20405;-80
2023/04/01 13:17:31;;;;;;;2.00;1.70;;;;;;;;;;5061019;28;21086;-80
2023/04/01 13:19:59;;;;;;;1.88;1.60;;;;;;;;;;5060037;28;20425;-80
2023/04/01 13:22:29;;;;;;;1.48;1.38;;;;;;;;;;5063224;28;20411;-80
2023/04/01 13:25:00;;;;;;;1.63;1.52;;;;;;;;;;5063263;28;20419;-78
2023/04/01 13:27:31;;;;;;;2.30;2.20;;;;;;;;;;5063133;28;20437;-79
2023/04/01 13:30:05;;;;;;;3.00;2.80;;;;;;;;;;5063402;28;20435;-78
2023/04/01 13:32:36;;;;;;;3.10;2.90;;;;;;;;;;5063823;28;20445;-80
2023/04/01 13:35:21;;;;;;;2.90;2.70;;;;;;;;;;5061587;28;20427;-79
2023/04/01 13:37:53;;;;;;;2.63;2.42;;;;;;;;;;5063712;28;20835;-78
2023/04/01 13:40:26;;;;;;;2.08;1.98;;;;;;;;;;5066947;28;20435;-79
2023/04/01 13:42:54;;;;;;;3.20;2.20;;;;;;;;;;5068688;28;20926;-79
2023/04/01 13:45:25;;;;;;;2.15;2.05;;;;;;;;;;5060927;28;20411;-80
2023/04/01 13:48:19;;;;;;;2.65;2.45;;;;;;;;;;5066635;28;20902;-80
2023/04/01 13:51:17;;;;;;;2.70;2.50;;;;;;;;;;5061640;28;20432;-79
2023/04/01 13:54:01;;;;;;;4.95;4.55;;;;;;;;;;5042579;28;20433;-80
2023/04/01 13:56:34;;;;;;;5.85;5.35;;;;;;;;;;5048820;28;20453;-79
2023/04/01 13:59:16;;;;;;;5.95;5.55;;;;;;;;;;5067661;28;20801;-80
2023/04/01 14:01:50;;;;;;;4.90;4.38;;;;;;;;;;5065450;28;20414;-80
2023/04/01 14:04:40;;;;;;;4.10;3.90;;;;;;;;;;5067206;28;20492;-79
2023/04/01 14:07:17;;;;;;;5.05;4.65;;;;;;;;;;5063896;28;20446;-79
2023/04/01 14:09:53;;;;;;;6.10;5.70;;;;;;;;;;5064979;28;20430;-79
2023/04/01 14:12:27;;;;;;;8.57;7.68;;;;;;;;;;5064090;28;20426;-80
2023/04/01 14:15:02;;;;;;;7.32;6.82;;;;;;;;;;5063895;28;20434;-79
2023/04/01 14:17:40;;;;;;;7.97;7.30;;;;;;;;;;5064801;28;20420;-79
2023/04/01 14:20:28;;;;;;;7.20;6.60;;;;;;;;;;5063947;28;20486;-79
2023/04/01 14:23:06;;;;;;;7.10;6.50;;;;;;;;;;5064575;28;20462;-79
2023/04/01 14:25:56;;;;;;;7.20;6.70;;;;;;;;;;5061602;28;20436;-79
2023/04/01 14:28:29;;;;;;;5.67;5.23;;;;;;;;;;5064113;28;20427;-79
2023/04/01 14:31:05;;;;;;;5.80;5.30;;;;;;;;;;5061568;28;20415;-79
2023/04/01 14:33:38;;;;;;;5.32;4.82;;;;;;;;;;5065231;28;20427;-79
2023/04/01 14:36:23;;;;;;;6.32;5.75;;;;;;;;;;5066394;28;20431;-79
2023/04/01 14:38:55;;;;;;;8.10;7.40;;;;;;;;;;5061617;28;20423;-80
2023/04/01 14:41:35;;;;;;;7.67;6.97;;;;;;;;;;5062092;28;20926;-80
2023/04/01 14:44:18;;;;;;;8.60;7.90;;;;;;;;;;5067404;28;20424;-80
2023/04/01 14:47:03;;;;;;;9.30;8.50;;;;;;;;;;5062936;28;20781;-80
2023/04/01 14:49:34;;;;;;;8.27;7.38;;;;;;;;;;5065694;28;20430;-80
2023/04/01 14:52:05;;;;;;;9.18;8.27;;;;;;;;;;5066087;28;20421;-79
2023/04/01 14:54:33;;;;;;;7.80;7.00;;;;;;;;;;5061433;28;20459;-79
2023/04/01 14:57:04;;;;;;;7.95;7.15;;;;;;;;;;5046700;28;20485;-79
2023/04/01 14:59:30;;;;;;;6.68;6.18;;;;;;;;;;5063228;28;20439;-79
2023/04/01 15:02:00;;;;;;;8.02;7.32;;;;;;;;;;5049501;28;20469;-79
2023/04/01 15:04:38;;;;;;;8.18;7.47;;;;;;;;;;5059124;28;20768;-79
2023/04/01 15:07:20;;;;;;;8.98;7.80;;;;;;;;;;5060954;28;20416;-79